Time,TemperatureF,DewpointF,PressureIn,WindDirection,WindDirectionDegrees,WindSpeedMPH,WindSpeedGustMPH,Humidity,HourlyPrecipIn,Conditions,Clouds,dailyrainin,SoftwareType,DateUTC
2013-01-23 00:00:00,15.6,-1.0,30.16,ESE,113,0.0,25.8,47,0.00,,,0.00,heavyweathercustom,2013-01-23 05:00:00,
2013-01-23 00:10:00,15.3,-1.3,30.16,WSW,248,0.0,25.8,47,0.00,,,0.00,heavyweathercustom,2013-01-23 05:10:00,
2013-01-23 00:32:00,15.1,-1.5,30.16,ESE,113,3.3,15.4,47,0.00,,,0.00,heavyweathercustom,2013-01-23 05:32:00,
2013-01-23 00:40:00,15.3,-0.8,30.15,ESE,113,3.3,15.4,48,0.00,,,0.00,heavyweathercustom,2013-01-23 05:40:00,
2013-01-23 01:00:00,15.4,-0.3,30.15,ESE,113,6.8,10.4,49,0.00,,,0.00,heavyweathercustom,2013-01-23 06:00:00,
2013-01-23 01:10:00,15.3,-0.4,30.15,SSE,158,0.0,10.4,49,0.00,,,0.00,heavyweathercustom,2013-01-23 06:10:00,
2013-01-23 01:20:00,15.1,-0.6,30.15,WNW,293,0.0,10.4,49,0.00,,,0.00,heavyweathercustom,2013-01-23 06:20:00,
2013-01-23 01:32:00,14.7,-1.4,30.16,WSW,248,0.0,10.4,48,0.00,,,0.00,heavyweathercustom,2013-01-23 06:32:00,
2013-01-23 01:40:00,14.7,-1.4,30.17,WSW,248,0.0,13.4,48,0.00,,,0.00,heavyweathercustom,2013-01-23 06:40:00,
2013-01-23 02:00:00,14.5,-1.1,30.17,SSW,203,0.0,13.4,49,0.00,,,0.00,heavyweathercustom,2013-01-23 07:00:00,
2013-01-23 02:10:00,14.7,-1.0,30.18,ESE,113,0.0,9.8,49,0.00,,,0.00,heavyweathercustom,2013-01-23 07:10:00,
2013-01-23 02:20:00,14.5,-1.1,30.17,SE,135,0.0,9.8,49,0.00,,,0.00,heavyweathercustom,2013-01-23 07:20:00,
2013-01-23 02:32:00,14.5,-1.1,30.17,West,270,0.0,9.8,49,0.00,,,0.00,heavyweathercustom,2013-01-23 07:32:00,
2013-01-23 02:40:00,14.5,-1.1,30.18,WSW,248,0.0,8.7,49,0.00,,,0.00,heavyweathercustom,2013-01-23 07:40:00,
2013-01-23 02:50:00,14.4,-0.8,30.18,SSW,203,0.0,8.7,50,0.00,,,0.00,heavyweathercustom,2013-01-23 07:50:00,
2013-01-23 03:00:00,14.4,-0.8,30.18,SW,225,0.0,8.7,50,0.00,,,0.00,heavyweathercustom,2013-01-23 08:00:00,
2013-01-23 03:10:00,14.4,-0.8,30.17,SSE,158,0.0,8.7,50,0.00,,,0.00,heavyweathercustom,2013-01-23 08:10:00,
2013-01-23 03:20:00,14.2,-1.0,30.17,SE,135,0.0,8.7,50,0.00,,,0.00,heavyweathercustom,2013-01-23 08:20:00,
2013-01-23 03:32:00,14.2,-1.0,30.17,South,180,0.0,8.7,50,0.00,,,0.00,heavyweathercustom,2013-01-23 08:32:00,
2013-01-23 03:40:00,14.2,-1.0,30.17,SSW,203,0.0,8.7,50,0.00,,,0.00,heavyweathercustom,2013-01-23 08:40:00,
2013-01-23 03:50:00,13.8,-1.4,30.17,WNW,293,0.0,12.2,50,0.00,,,0.00,heavyweathercustom,2013-01-23 08:50:00,
2013-01-23 04:00:00,13.8,-0.9,30.17,WNW,293,0.0,12.2,51,0.00,,,0.00,heavyweathercustom,2013-01-23 09:00:00,
2013-01-23 04:10:00,13.8,-0.9,30.17,West,270,0.0,12.2,51,0.00,,,0.00,heavyweathercustom,2013-01-23 09:10:00,
2013-01-23 04:20:00,13.8,-0.9,30.17,WNW,293,0.0,8.4,51,0.00,,,0.00,heavyweathercustom,2013-01-23 09:20:00,
2013-01-23 04:32:00,13.8,-0.9,30.17,SW,225,0.0,8.4,51,0.00,,,0.00,heavyweathercustom,2013-01-23 09:32:00,
2013-01-23 04:40:00,14.2,-0.2,30.18,West,270,0.0,8.4,52,0.00,,,0.00,heavyweathercustom,2013-01-23 09:40:00,
2013-01-23 04:50:00,13.8,-0.5,30.18,NW,315,0.0,7.1,52,0.00,,,0.00,heavyweathercustom,2013-01-23 09:50:00,
2013-01-23 05:00:00,13.8,-0.5,30.18,WNW,293,0.0,7.1,52,0.00,,,0.00,heavyweathercustom,2013-01-23 10:00:00,
2013-01-23 05:10:00,13.8,-0.5,30.18,SW,225,3.3,7.1,52,0.00,,,0.00,heavyweathercustom,2013-01-23 10:10:00,
2013-01-23 05:20:00,13.6,-0.7,30.17,WNW,293,0.0,7.1,52,0.00,,,0.00,heavyweathercustom,2013-01-23 10:20:00,
2013-01-23 05:32:00,13.6,-0.3,30.18,SSE,158,0.0,8.7,53,0.00,,,0.00,heavyweathercustom,2013-01-23 10:32:00,
2013-01-23 05:40:00,13.6,-0.7,30.17,SW,225,0.0,8.7,52,0.00,,,0.00,heavyweathercustom,2013-01-23 10:40:00,
2013-01-23 05:50:00,13.3,-0.6,30.17,West,270,0.0,8.7,53,0.00,,,0.00,heavyweathercustom,2013-01-23 10:50:00,
2013-01-23 06:00:00,13.3,-0.6,30.17,SSW,203,0.0,8.7,53,0.00,,,0.00,heavyweathercustom,2013-01-23 11:00:00,
2013-01-23 06:10:00,13.3,-0.2,30.18,WNW,293,0.0,8.7,54,0.00,,,0.00,heavyweathercustom,2013-01-23 11:10:00,
2013-01-23 06:20:00,13.3,-0.2,30.18,SW,225,0.0,8.4,54,0.00,,,0.00,heavyweathercustom,2013-01-23 11:20:00,
2013-01-23 06:32:00,13.3,-0.2,30.18,West,270,0.0,8.4,54,0.00,,,0.00,heavyweathercustom,2013-01-23 11:32:00,
2013-01-23 06:40:00,13.3,-0.2,30.18,ESE,113,0.0,8.4,54,0.00,,,0.00,heavyweathercustom,2013-01-23 11:40:00,
2013-01-23 06:50:00,13.3,0.2,30.18,West,270,0.0,11.4,55,0.00,,,0.00,heavyweathercustom,2013-01-23 11:50:00,
2013-01-23 07:02:00,13.3,0.2,30.19,West,270,0.0,11.4,55,0.00,,,0.00,heavyweathercustom,2013-01-23 12:02:00,
2013-01-23 07:10:00,13.1,0.0,30.19,SW,225,3.3,11.4,55,0.00,,,0.00,heavyweathercustom,2013-01-23 12:10:00,
2013-01-23 07:20:00,12.9,-0.2,30.19,ESE,113,0.0,11.4,55,0.00,,,0.00,heavyweathercustom,2013-01-23 12:20:00,
2013-01-23 07:32:00,12.9,-0.2,30.19,SSE,158,0.0,12.8,55,0.00,,,0.00,heavyweathercustom,2013-01-23 12:32:00,
2013-01-23 07:40:00,12.7,-0.4,30.20,SE,135,0.0,12.9,55,0.00,,,0.00,heavyweathercustom,2013-01-23 12:40:00,
2013-01-23 07:50:00,12.9,-0.2,30.20,ESE,113,0.0,12.9,55,0.00,,,0.00,heavyweathercustom,2013-01-23 12:50:00,
2013-01-23 08:02:00,13.1,0.0,30.20,SSE,158,0.0,12.9,55,0.00,,,0.00,heavyweathercustom,2013-01-23 13:02:00,
2013-01-23 08:10:00,13.8,0.7,30.20,ESE,113,0.0,13.4,55,0.00,,,0.00,heavyweathercustom,2013-01-23 13:10:00,
2013-01-23 08:20:00,13.6,0.5,30.20,SSE,158,0.0,13.4,55,0.00,,,0.00,heavyweathercustom,2013-01-23 13:20:00,
2013-01-23 08:32:00,13.6,0.9,30.20,South,180,0.0,13.4,56,0.00,,,0.00,heavyweathercustom,2013-01-23 13:32:00,
2013-01-23 08:40:00,13.6,0.5,30.20,ESE,113,0.0,13.4,55,0.00,,,0.00,heavyweathercustom,2013-01-23 13:40:00,
2013-01-23 08:50:00,13.6,0.5,30.19,ESE,113,0.0,13.1,55,0.00,,,0.00,heavyweathercustom,2013-01-23 13:50:00,
2013-01-23 09:02:00,13.8,0.7,30.20,SSE,158,0.0,13.1,55,0.00,,,0.00,heavyweathercustom,2013-01-23 14:02:00,
2013-01-23 09:10:00,14.0,0.8,30.21,ESE,113,10.1,22.1,55,0.00,,,0.00,heavyweathercustom,2013-01-23 14:10:00,
2013-01-23 09:20:00,14.2,1.0,30.21,SW,225,0.0,22.1,55,0.00,,,0.00,heavyweathercustom,2013-01-23 14:20:00,
2013-01-23 09:32:00,14.2,1.0,30.21,ESE,113,0.0,22.1,55,0.00,,,0.00,heavyweathercustom,2013-01-23 14:32:00,
2013-01-23 09:40:00,14.4,1.2,30.21,East,90,6.8,15.7,55,0.00,,,0.00,heavyweathercustom,2013-01-23 14:40:00,
2013-01-23 10:02:00,14.9,2.1,30.21,WSW,248,0.0,15.7,56,0.00,,,0.00,heavyweathercustom,2013-01-23 15:02:00,
2013-01-23 10:10:00,15.6,2.7,30.21,SE,135,3.3,15.7,56,0.00,,,0.00,heavyweathercustom,2013-01-23 15:10:00,
2013-01-23 10:20:00,15.4,1.8,30.21,ESE,113,0.0,12.2,54,0.00,,,0.00,heavyweathercustom,2013-01-23 15:20:00,
2013-01-23 10:40:00,16.0,1.9,30.20,SE,135,10.1,13.1,53,0.00,,,0.00,heavyweathercustom,2013-01-23 15:40:00,
2013-01-23 10:50:00,16.0,1.9,30.20,SE,135,0.0,13.1,53,0.00,,,0.00,heavyweathercustom,2013-01-23 15:50:00,
2013-01-23 11:02:00,16.0,1.1,30.20,SSW,203,0.0,13.1,51,0.00,,,0.00,heavyweathercustom,2013-01-23 16:02:00,
2013-01-23 11:10:00,16.3,1.4,30.20,ESE,113,0.0,13.1,51,0.00,,,0.00,heavyweathercustom,2013-01-23 16:10:00,
2013-01-23 11:32:00,16.9,1.5,30.19,ESE,113,0.0,12.5,50,0.00,,,0.00,heavyweathercustom,2013-01-23 16:32:00,
2013-01-23 11:40:00,16.9,1.1,30.18,ESE,113,0.0,14.4,49,0.00,,,0.00,heavyweathercustom,2013-01-23 16:40:00,
2013-01-23 11:50:00,16.9,1.1,30.17,SE,135,6.8,14.4,49,0.00,,,0.00,heavyweathercustom,2013-01-23 16:50:00,
2013-01-23 12:02:00,17.1,0.8,30.17,SE,135,0.0,14.4,48,0.00,,,0.00,heavyweathercustom,2013-01-23 17:02:00,
2013-01-23 12:10:00,17.8,1.9,30.16,West,270,0.0,14.4,49,0.00,,,0.00,heavyweathercustom,2013-01-23 17:10:00,
2013-01-23 12:20:00,17.8,1.5,30.16,SW,225,0.0,14.4,48,0.00,,,0.00,heavyweathercustom,2013-01-23 17:20:00,
2013-01-23 12:32:00,17.8,1.0,30.15,ESE,113,6.8,14.4,47,0.00,,,0.00,heavyweathercustom,2013-01-23 17:32:00,
2013-01-23 12:40:00,17.8,1.0,30.15,SW,225,0.0,14.4,47,0.00,,,0.00,heavyweathercustom,2013-01-23 17:40:00,
2013-01-23 12:50:00,17.8,1.0,30.15,East,90,0.0,15.0,47,0.00,,,0.00,heavyweathercustom,2013-01-23 17:50:00,
2013-01-23 13:02:00,17.8,1.0,30.14,ENE,68,10.1,15.0,47,0.00,,,0.00,heavyweathercustom,2013-01-23 18:02:00,
2013-01-23 13:10:00,18.3,1.5,30.14,SE,135,0.0,18.8,47,0.00,,,0.00,heavyweathercustom,2013-01-23 18:10:00,
2013-01-23 13:20:00,18.3,1.5,30.14,WNW,293,0.0,18.8,47,0.00,,,0.00,heavyweathercustom,2013-01-23 18:20:00,
2013-01-23 13:32:00,18.3,1.5,30.14,SSE,158,0.0,18.8,47,0.00,,,0.00,heavyweathercustom,2013-01-23 18:32:00,
2013-01-23 13:40:00,18.1,1.3,30.14,ESE,113,0.0,27.0,47,0.00,,,0.00,heavyweathercustom,2013-01-23 18:40:00,
2013-01-23 13:50:00,18.5,1.7,30.13,SSW,203,0.0,27.0,47,0.00,,,0.00,heavyweathercustom,2013-01-23 18:50:00,
2013-01-23 14:02:00,18.9,1.6,30.13,SSW,203,0.0,27.0,46,0.00,,,0.00,heavyweathercustom,2013-01-23 19:02:00,
2013-01-23 14:10:00,19.4,2.5,30.13,SSE,158,0.0,25.1,47,0.00,,,0.00,heavyweathercustom,2013-01-23 19:10:00,
2013-01-23 14:20:00,19.6,2.2,30.13,West,270,0.0,25.1,46,0.00,,,0.00,heavyweathercustom,2013-01-23 19:20:00,
2013-01-23 14:32:00,19.9,2.5,30.13,SE,135,0.0,25.1,46,0.00,,,0.00,heavyweathercustom,2013-01-23 19:32:00,
2013-01-23 14:40:00,19.9,2.5,30.13,East,90,6.8,10.1,46,0.00,,,0.00,heavyweathercustom,2013-01-23 19:40:00,
2013-01-23 14:50:00,19.6,1.7,30.13,West,270,0.0,10.1,45,0.00,,,0.00,heavyweathercustom,2013-01-23 19:50:00,
2013-01-23 15:02:00,19.8,1.9,30.13,ESE,113,3.3,10.1,45,0.00,,,0.00,heavyweathercustom,2013-01-23 20:02:00,
2013-01-23 15:10:00,19.6,1.7,30.13,NE,45,0.0,10.4,45,0.00,,,0.00,heavyweathercustom,2013-01-23 20:10:00,
2013-01-23 15:20:00,19.6,1.7,30.13,SSE,158,0.0,10.4,45,0.00,,,0.00,heavyweathercustom,2013-01-23 20:20:00,
2013-01-23 15:32:00,19.8,1.9,30.13,SE,135,6.8,10.4,45,0.00,,,0.00,heavyweathercustom,2013-01-23 20:32:00,
2013-01-23 15:40:00,19.6,1.7,30.13,West,270,0.0,23.7,45,0.00,,,0.00,heavyweathercustom,2013-01-23 20:40:00,
2013-01-23 15:50:00,19.8,1.9,30.13,WNW,293,0.0,23.7,45,0.00,,,0.00,heavyweathercustom,2013-01-23 20:50:00,
2013-01-23 16:02:00,19.6,1.7,30.13,SE,135,0.0,23.7,45,0.00,,,0.00,heavyweathercustom,2013-01-23 21:02:00,
2013-01-23 16:10:00,19.6,1.7,30.13,WNW,293,0.0,15.7,45,0.00,,,0.00,heavyweathercustom,2013-01-23 21:10:00,
2013-01-23 16:32:00,19.6,1.7,30.13,South,180,0.0,15.7,45,0.00,,,0.00,heavyweathercustom,2013-01-23 21:32:00,
2013-01-23 16:40:00,19.4,1.6,30.14,SSE,158,3.3,14.3,45,0.00,,,0.00,heavyweathercustom,2013-01-23 21:40:00,
2013-01-23 16:50:00,19.2,1.4,30.14,NW,315,0.0,14.3,45,0.00,,,0.00,heavyweathercustom,2013-01-23 21:50:00,
2013-01-23 17:02:00,19.0,1.2,30.14,West,270,0.0,14.3,45,0.00,,,0.00,heavyweathercustom,2013-01-23 22:02:00,
2013-01-23 17:10:00,18.9,1.1,30.14,WSW,248,0.0,14.3,45,0.00,,,0.00,heavyweathercustom,2013-01-23 22:10:00,
2013-01-23 17:20:00,18.7,0.9,30.15,WNW,293,0.0,13.4,45,0.00,,,0.00,heavyweathercustom,2013-01-23 22:20:00,
2013-01-23 17:32:00,18.3,0.6,30.15,NNW,338,0.0,13.4,45,0.00,,,0.00,heavyweathercustom,2013-01-23 22:32:00,
2013-01-23 17:40:00,18.3,0.6,30.15,ESE,113,3.3,10.1,45,0.00,,,0.00,heavyweathercustom,2013-01-23 22:40:00,
2013-01-23 17:50:00,18.3,1.0,30.15,ESE,113,0.0,10.1,46,0.00,,,0.00,heavyweathercustom,2013-01-23 22:50:00,
2013-01-23 18:02:00,18.3,1.0,30.16,ESE,113,0.0,10.1,46,0.00,,,0.00,heavyweathercustom,2013-01-23 23:02:00,
2013-01-23 18:10:00,18.3,1.0,30.16,ESE,113,0.0,10.1,46,0.00,,,0.00,heavyweathercustom,2013-01-23 23:10:00,
2013-01-23 18:20:00,18.3,1.5,30.16,SSE,158,0.0,11.1,47,0.00,,,0.00,heavyweathercustom,2013-01-23 23:20:00,
2013-01-23 18:32:00,18.3,1.0,30.16,ESE,113,6.8,11.1,46,0.00,,,0.00,heavyweathercustom,2013-01-23 23:32:00,
2013-01-23 18:40:00,18.0,0.7,30.16,SE,135,3.3,13.4,46,0.00,,,0.00,heavyweathercustom,2013-01-23 23:40:00,
2013-01-23 18:50:00,18.0,1.2,30.17,West,270,0.0,13.4,47,0.00,,,0.00,heavyweathercustom,2013-01-23 23:50:00,
2013-01-23 19:02:00,18.0,1.2,30.17,ESE,113,3.3,13.4,47,0.00,,,0.00,heavyweathercustom,2013-01-24 00:02:00,
2013-01-23 19:10:00,18.0,1.2,30.16,SSW,203,0.0,11.7,47,0.00,,,0.00,heavyweathercustom,2013-01-24 00:10:00,
2013-01-23 19:20:00,17.8,1.5,30.17,ESE,113,0.0,11.7,48,0.00,,,0.00,heavyweathercustom,2013-01-24 00:20:00,
2013-01-23 19:32:00,17.8,1.5,30.17,SSE,158,0.0,11.7,48,0.00,,,0.00,heavyweathercustom,2013-01-24 00:32:00,
2013-01-23 19:40:00,17.8,1.5,30.17,WSW,248,0.0,11.7,48,0.00,,,0.00,heavyweathercustom,2013-01-24 00:40:00,
2013-01-23 19:50:00,17.8,1.9,30.17,SE,135,0.0,9.0,49,0.00,,,0.00,heavyweathercustom,2013-01-24 00:50:00,
2013-01-23 20:02:00,17.8,1.9,30.17,WNW,293,0.0,9.0,49,0.00,,,0.00,heavyweathercustom,2013-01-24 01:02:00,
2013-01-23 20:10:00,17.4,1.5,30.17,SSW,203,0.0,10.8,49,0.00,,,0.00,heavyweathercustom,2013-01-24 01:10:00,
2013-01-23 20:20:00,17.4,2.0,30.16,SSE,158,0.0,10.8,50,0.00,,,0.00,heavyweathercustom,2013-01-24 01:20:00,
2013-01-23 20:32:00,17.2,1.8,30.16,SE,135,3.3,10.8,50,0.00,,,0.00,heavyweathercustom,2013-01-24 01:32:00,
2013-01-23 20:40:00,17.2,1.8,30.16,South,180,0.0,12.2,50,0.00,,,0.00,heavyweathercustom,2013-01-24 01:40:00,
2013-01-23 20:50:00,17.2,2.2,30.16,West,270,0.0,12.2,51,0.00,,,0.00,heavyweathercustom,2013-01-24 01:50:00,
2013-01-23 21:02:00,17.2,2.2,30.16,SE,135,0.0,12.2,51,0.00,,,0.00,heavyweathercustom,2013-01-24 02:02:00,
2013-01-23 21:10:00,16.9,1.9,30.16,ESE,113,3.3,12.2,51,0.00,,,0.00,heavyweathercustom,2013-01-24 02:10:00,
2013-01-23 21:20:00,16.9,1.9,30.16,WSW,248,0.0,12.2,51,0.00,,,0.00,heavyweathercustom,2013-01-24 02:20:00,
2013-01-23 21:32:00,16.9,1.9,30.17,WSW,248,0.0,12.2,51,0.00,,,0.00,heavyweathercustom,2013-01-24 02:32:00,
2013-01-23 21:40:00,16.9,2.4,30.16,SSW,203,0.0,12.2,52,0.00,,,0.00,heavyweathercustom,2013-01-24 02:40:00,
2013-01-23 21:50:00,16.9,2.4,30.16,NNW,338,0.0,9.5,52,0.00,,,0.00,heavyweathercustom,2013-01-24 02:50:00,
2013-01-23 22:02:00,16.9,2.4,30.16,SE,135,0.0,9.5,52,0.00,,,0.00,heavyweathercustom,2013-01-24 03:02:00,
2013-01-23 22:10:00,16.9,2.4,30.16,ESE,113,3.3,9.5,52,0.00,,,0.00,heavyweathercustom,2013-01-24 03:10:00,
2013-01-23 22:20:00,16.5,2.0,30.16,SE,135,3.3,9.5,52,0.00,,,0.00,heavyweathercustom,2013-01-24 03:20:00,
2013-01-23 22:32:00,16.5,2.0,30.17,East,90,0.0,9.5,52,0.00,,,0.00,heavyweathercustom,2013-01-24 03:32:00,
2013-01-23 22:40:00,16.5,2.4,30.17,ESE,113,0.0,27.1,53,0.00,,,0.00,heavyweathercustom,2013-01-24 03:40:00,
2013-01-23 22:50:00,16.5,2.4,30.17,ESE,113,0.0,27.1,53,0.00,,,0.00,heavyweathercustom,2013-01-24 03:50:00,
2013-01-23 23:02:00,16.5,2.4,30.16,ESE,113,0.0,27.1,53,0.00,,,0.00,heavyweathercustom,2013-01-24 04:02:00,
2013-01-23 23:10:00,16.7,3.0,30.16,SE,135,0.0,8.9,54,0.00,,,0.00,heavyweathercustom,2013-01-24 04:10:00,
2013-01-23 23:20:00,16.7,2.6,30.16,ESE,113,3.3,8.9,53,0.00,,,0.00,heavyweathercustom,2013-01-24 04:20:00,
2013-01-23 23:32:00,16.7,2.6,30.15,SSW,203,0.0,8.9,53,0.00,,,0.00,heavyweathercustom,2013-01-24 04:32:00,
2013-01-23 23:50:00,16.7,2.2,30.15,West,270,0.0,8.1,52,0.00,,,0.00,heavyweathercustom,2013-01-24 04:50:00,